sensor_id;sensor_type;location;lat;lon;timestamp;pressure;altitude;pressure_sealevel;temperature;humidity
7441;BME280;29616;51.950;8.572;2023-08-20T00:01:57;100564.63;;;21.27;100.00
7441;BME280;29616;51.950;8.572;2023-08-20T00:04:28;100568.94;;;21.36;100.00
7441;BME280;29616;51.950;8.572;2023-08-20T00:06:59;100566.34;;;21.28;100.00
7441;BME280;29616;51.950;8.572;2023-08-20T00:09:28;100559.28;;;21.26;100.00
7441;BME280;29616;51.950;8.572;2023-08-20T00:11:57;100567.19;;;21.22;100.00
7441;BME280;29616;51.950;8.572;2023-08-20T00:14:56;100552.38;;;21.02;100.00
7441;BME280;29616;51.950;8.572;2023-08-20T00:17:33;100568.44;;;21.06;100.00
7441;BME280;29616;51.950;8.572;2023-08-20T00:20:05;100576.78;;;21.06;100.00
7441;BME280;29616;51.950;8.572;2023-08-20T00:22:37;100553.84;;;20.98;100.00
7441;BME280;29616;51.950;8.572;2023-08-20T00:25:07;100568.81;;;20.97;100.00
7441;BME280;29616;51.950;8.572;2023-08-20T00:27:36;100576.34;;;21.09;100.00
7441;BME280;29616;51.950;8.572;2023-08-20T00:30:08;100598.16;;;21.19;100.00
7441;BME280;29616;51.950;8.572;2023-08-20T00:32:38;100594.53;;;21.19;100.00
7441;BME280;29616;51.950;8.572;2023-08-20T00:35:07;100592.41;;;21.21;100.00
7441;BME280;29616;51.950;8.572;2023-08-20T00:37:37;100574.88;;;21.27;100.00
7441;BME280;29616;51.950;8.572;2023-08-20T00:40:07;100584.09;;;21.27;100.00
7441;BME280;29616;51.950;8.572;2023-08-20T00:42:37;100563.53;;;21.15;100.00
7441;BME280;29616;51.950;8.572;2023-08-20T00:45:09;100585.59;;;21.30;100.00
7441;BME280;29616;51.950;8.572;2023-08-20T00:47:38;100584.94;;;21.28;100.00
7441;BME280;29616;51.950;8.572;2023-08-20T00:50:08;100576.16;;;21.24;100.00
7441;BME280;29616;51.950;8.572;2023-08-20T00:52:38;100556.06;;;21.16;100.00
7441;BME280;29616;51.950;8.572;2023-08-20T00:55:09;100551.97;;;21.11;100.00
7441;BME280;29616;51.950;8.572;2023-08-20T00:57:39;100567.78;;;21.11;100.00
7441;BME280;29616;51.950;8.572;2023-08-20T01:00:11;100581.72;;;21.24;100.00
7441;BME280;29616;51.950;8.572;2023-08-20T01:02:40;100580.00;;;21.17;100.00
7441;BME280;29616;51.950;8.572;2023-08-20T01:05:12;100592.84;;;21.24;100.00
7441;BME280;29616;51.950;8.572;2023-08-20T01:08:04;100551.69;;;21.00;100.00
7441;BME280;29616;51.950;8.572;2023-08-20T01:10:43;100574.03;;;21.13;100.00
7441;BME280;29616;51.950;8.572;2023-08-20T01:13:16;100579.13;;;21.16;100.00
7441;BME280;29616;51.950;8.572;2023-08-20T01:15:46;100579.53;;;21.06;100.00
7441;BME280;29616;51.950;8.572;2023-08-20T01:18:15;100574.16;;;20.98;100.00
7441;BME280;29616;51.950;8.572;2023-08-20T01:20:50;100578.38;;;20.88;100.00
7441;BME280;29616;51.950;8.572;2023-08-20T01:23:45;100574.06;;;20.79;100.00
7441;BME280;29616;51.950;8.572;2023-08-20T01:26:48;100579.19;;;20.75;100.00
7441;BME280;29616;51.950;8.572;2023-08-20T01:29:25;100579.38;;;20.74;100.00
7441;BME280;29616;51.950;8.572;2023-08-20T01:31:54;100569.53;;;20.65;100.00
7441;BME280;29616;51.950;8.572;2023-08-20T01:34:24;100575.94;;;20.65;100.00
7441;BME280;29616;51.950;8.572;2023-08-20T01:36:53;100572.91;;;20.60;100.00
7441;BME280;29616;51.950;8.572;2023-08-20T01:39:22;100570.75;;;20.55;100.00
7441;BME280;29616;51.950;8.572;2023-08-20T01:41:50;100553.16;;;20.35;100.00
7441;BME280;29616;51.950;8.572;2023-08-20T01:44:19;100573.72;;;20.47;100.00
7441;BME280;29616;51.950;8.572;2023-08-20T01:46:49;100560.16;;;20.25;100.00
7441;BME280;29616;51.950;8.572;2023-08-20T01:49:19;100585.03;;;20.46;100.00
7441;BME280;29616;51.950;8.572;2023-08-20T01:51:48;100588.66;;;20.46;100.00
7441;BME280;29616;51.950;8.572;2023-08-20T01:54:17;100583.94;;;20.40;100.00
7441;BME280;29616;51.950;8.572;2023-08-20T01:56:45;100560.63;;;20.35;100.00
7441;BME280;29616;51.950;8.572;2023-08-20T01:59:14;100584.88;;;20.61;100.00
7441;BME280;29616;51.950;8.572;2023-08-20T02:01:43;100580.22;;;20.68;100.00
7441;BME280;29616;51.950;8.572;2023-08-20T02:04:13;100563.31;;;20.63;100.00
7441;BME280;29616;51.950;8.572;2023-08-20T02:06:42;100575.56;;;20.75;100.00
7441;BME280;29616;51.950;8.572;2023-08-20T02:09:13;100573.19;;;20.72;100.00
7441;BME280;29616;51.950;8.572;2023-08-20T02:11:42;100567.00;;;20.70;100.00
7441;BME280;29616;51.950;8.572;2023-08-20T02:14:10;100543.22;;;20.54;100.00
7441;BME280;29616;51.950;8.572;2023-08-20T02:16:40;100550.69;;;20.53;100.00
7441;BME280;29616;51.950;8.572;2023-08-20T02:19:08;100568.88;;;20.63;100.00
7441;BME280;29616;51.950;8.572;2023-08-20T02:21:39;100572.06;;;20.60;100.00
7441;BME280;29616;51.950;8.572;2023-08-20T02:24:08;100569.03;;;20.48;100.00
7441;BME280;29616;51.950;8.572;2023-08-20T02:26:37;100575.59;;;20.40;100.00
7441;BME280;29616;51.950;8.572;2023-08-20T02:29:06;100573.63;;;20.34;100.00
7441;BME280;29616;51.950;8.572;2023-08-20T02:31:35;100584.34;;;20.37;100.00
7441;BME280;29616;51.950;8.572;2023-08-20T02:34:05;100587.31;;;20.36;100.00
7441;BME280;29616;51.950;8.572;2023-08-20T02:36:34;100596.31;;;20.38;100.00
7441;BME280;29616;51.950;8.572;2023-08-20T02:39:04;100589.88;;;20.37;100.00
7441;BME280;29616;51.950;8.572;2023-08-20T02:41:35;100598.91;;;20.46;100.00
7441;BME280;29616;51.950;8.572;2023-08-20T02:44:04;100562.31;;;20.29;100.00
7441;BME280;29616;51.950;8.572;2023-08-20T02:46:33;100597.66;;;20.48;100.00
7441;BME280;29616;51.950;8.572;2023-08-20T02:49:02;100571.50;;;20.36;100.00
7441;BME280;29616;51.950;8.572;2023-08-20T02:51:30;100587.84;;;20.52;100.00
7441;BME280;29616;51.950;8.572;2023-08-20T02:53:59;100590.81;;;20.51;100.00
7441;BME280;29616;51.950;8.572;2023-08-20T02:56:29;100605.34;;;20.53;100.00
7441;BME280;29616;51.950;8.572;2023-08-20T02:58:57;100581.41;;;20.45;100.00
7441;BME280;29616;51.950;8.572;2023-08-20T03:01:27;100582.28;;;20.52;100.00
7441;BME280;29616;51.950;8.572;2023-08-20T03:03:56;100599.41;;;20.63;100.00
7441;BME280;29616;51.950;8.572;2023-08-20T03:06:25;100616.75;;;20.71;100.00
7441;BME280;29616;51.950;8.572;2023-08-20T03:08:53;100605.69;;;20.78;100.00
7441;BME280;29616;51.950;8.572;2023-08-20T03:11:22;100588.13;;;20.64;100.00
7441;BME280;29616;51.950;8.572;2023-08-20T03:13:52;100612.34;;;20.83;100.00
7441;BME280;29616;51.950;8.572;2023-08-20T03:16:21;100617.44;;;20.80;100.00
7441;BME280;29616;51.950;8.572;2023-08-20T03:18:50;100610.84;;;20.81;100.00
7441;BME280;29616;51.950;8.572;2023-08-20T03:21:18;100619.19;;;20.81;100.00
7441;BME280;29616;51.950;8.572;2023-08-20T03:23:47;100609.94;;;20.74;100.00
7441;BME280;29616;51.950;8.572;2023-08-20T03:26:16;100621.50;;;20.84;100.00
7441;BME280;29616;51.950;8.572;2023-08-20T03:28:44;100619.59;;;20.78;100.00
7441;BME280;29616;51.950;8.572;2023-08-20T03:31:14;100620.88;;;20.82;100.00
7441;BME280;29616;51.950;8.572;2023-08-20T03:33:43;100611.03;;;20.73;100.00
7441;BME280;29616;51.950;8.572;2023-08-20T03:36:12;100612.72;;;20.74;100.00
7441;BME280;29616;51.950;8.572;2023-08-20T03:38:41;100613.97;;;20.71;100.00
7441;BME280;29616;51.950;8.572;2023-08-20T03:41:10;100617.22;;;20.75;100.00
7441;BME280;29616;51.950;8.572;2023-08-20T03:43:39;100614.84;;;20.72;100.00
7441;BME280;29616;51.950;8.572;2023-08-20T03:46:08;100612.72;;;20.74;100.00
7441;BME280;29616;51.950;8.572;2023-08-20T03:48:38;100609.13;;;20.80;100.00
7441;BME280;29616;51.950;8.572;2023-08-20T03:51:07;100614.03;;;20.78;100.00
7441;BME280;29616;51.950;8.572;2023-08-20T03:53:37;100616.34;;;20.74;100.00
7441;BME280;29616;51.950;8.572;2023-08-20T03:56:06;100608.91;;;20.81;100.00
7441;BME280;29616;51.950;8.572;2023-08-20T03:58:35;100620.88;;;20.82;100.00
7441;BME280;29616;51.950;8.572;2023-08-20T04:01:03;100629.84;;;20.77;100.00
7441;BME280;29616;51.950;8.572;2023-08-20T04:03:32;100636.03;;;20.79;100.00
7441;BME280;29616;51.950;8.572;2023-08-20T04:06:02;100629.38;;;20.74;100.00
7441;BME280;29616;51.950;8.572;2023-08-20T04:08:31;100652.53;;;20.87;100.00
7441;BME280;29616;51.950;8.572;2023-08-20T04:10:59;100654.25;;;20.95;100.00
7441;BME280;29616;51.950;8.572;2023-08-20T04:13:29;100639.88;;;20.78;100.00
7441;BME280;29616;51.950;8.572;2023-08-20T04:15:58;100661.56;;;20.96;100.00
7441;BME280;29616;51.950;8.572;2023-08-20T04:18:27;100656.00;;;21.02;100.00
7441;BME280;29616;51.950;8.572;2023-08-20T04:20:56;100665.41;;;21.01;100.00
7441;BME280;29616;51.950;8.572;2023-08-20T04:23:27;100661.97;;;20.93;100.00
7441;BME280;29616;51.950;8.572;2023-08-20T04:25:56;100666.66;;;20.92;100.00
7441;BME280;29616;51.950;8.572;2023-08-20T04:28:25;100636.03;;;20.73;100.00
7441;BME280;29616;51.950;8.572;2023-08-20T04:30:53;100655.13;;;20.89;100.00
7441;BME280;29616;51.950;8.572;2023-08-20T04:33:27;100661.31;;;20.91;100.00
7441;BME280;29616;51.950;8.572;2023-08-20T04:35:56;100653.56;;;20.80;100.00
7441;BME280;29616;51.950;8.572;2023-08-20T04:38:26;100630.63;;;20.65;100.00
7441;BME280;29616;51.950;8.572;2023-08-20T04:40:54;100664.63;;;20.73;100.00
7441;BME280;29616;51.950;8.572;2023-08-20T04:43:24;100668.81;;;20.63;100.00
7441;BME280;29616;51.950;8.572;2023-08-20T04:45:53;100677.69;;;20.73;100.00
7441;BME280;29616;51.950;8.572;2023-08-20T04:48:23;100672.53;;;20.76;100.00
7441;BME280;29616;51.950;8.572;2023-08-20T04:50:52;100669.59;;;20.78;100.00
7441;BME280;29616;51.950;8.572;2023-08-20T04:53:22;100677.69;;;20.73;100.00
7441;BME280;29616;51.950;8.572;2023-08-20T04:55:52;100666.91;;;20.63;100.00
7441;BME280;29616;51.950;8.572;2023-08-20T04:58:21;100669.66;;;20.57;100.00
7441;BME280;29616;51.950;8.572;2023-08-20T05:00:50;100677.06;;;20.49;100.00
7441;BME280;29616;51.950;8.572;2023-08-20T05:03:19;100661.56;;;20.27;100.00
7441;BME280;29616;51.950;8.572;2023-08-20T05:05:49;100664.53;;;20.26;100.00
7441;BME280;29616;51.950;8.572;2023-08-20T05:08:18;100654.16;;;20.13;100.00
7441;BME280;29616;51.950;8.572;2023-08-20T05:10:46;100666.72;;;20.09;100.00
7441;BME280;29616;51.950;8.572;2023-08-20T05:13:16;100650.22;;;20.01;100.00
7441;BME280;29616;51.950;8.572;2023-08-20T05:15:49;100658.91;;;20.19;100.00
7441;BME280;29616;51.950;8.572;2023-08-20T05:18:17;100623.00;;;20.11;100.00
7441;BME280;29616;51.950;8.572;2023-08-20T05:20:46;100655.81;;;20.29;100.00
7441;BME280;29616;51.950;8.572;2023-08-20T05:23:16;100658.25;;;20.38;100.00
7441;BME280;29616;51.950;8.572;2023-08-20T05:25:45;100672.34;;;20.43;100.00
7441;BME280;29616;51.950;8.572;2023-08-20T05:28:13;100670.78;;;20.62;100.00
7441;BME280;29616;51.950;8.572;2023-08-20T05:30:44;100668.75;;;20.84;100.00
7441;BME280;29616;51.950;8.572;2023-08-20T05:33:22;100670.09;;;20.94;100.00
7441;BME280;29616;51.950;8.572;2023-08-20T05:35:51;100658.94;;;20.88;100.00
7441;BME280;29616;51.950;8.572;2023-08-20T05:38:20;100664.50;;;20.88;100.00
7441;BME280;29616;51.950;8.572;2023-08-20T05:40:50;100668.84;;;21.03;100.00
7441;BME280;29616;51.950;8.572;2023-08-20T05:43:19;100675.59;;;21.22;100.00
7441;BME280;29616;51.950;8.572;2023-08-20T05:45:49;100671.16;;;21.41;100.00
7441;BME280;29616;51.950;8.572;2023-08-20T05:48:21;100667.75;;;21.39;100.00
7441;BME280;29616;51.950;8.572;2023-08-20T05:50:50;100673.97;;;21.54;100.00
7441;BME280;29616;51.950;8.572;2023-08-20T05:53:18;100678.53;;;21.81;100.00
7441;BME280;29616;51.950;8.572;2023-08-20T05:55:47;100667.47;;;22.01;100.00
7441;BME280;29616;51.950;8.572;2023-08-20T05:58:16;100666.59;;;22.13;100.00
7441;BME280;29616;51.950;8.572;2023-08-20T06:00:45;100674.09;;;22.13;100.00
7441;BME280;29616;51.950;8.572;2023-08-20T06:03:15;100641.72;;;22.25;100.00
7441;BME280;29616;51.950;8.572;2023-08-20T06:05:44;100662.72;;;22.67;100.00
7441;BME280;29616;51.950;8.572;2023-08-20T06:08:12;100657.50;;;22.83;100.00
7441;BME280;29616;51.950;8.572;2023-08-20T06:10:41;100659.59;;;22.94;100.00
7441;BME280;29616;51.950;8.572;2023-08-20T06:13:10;100640.34;;;22.86;100.00
7441;BME280;29616;51.950;8.572;2023-08-20T06:15:38;100676.69;;;23.11;100.00
7441;BME280;29616;51.950;8.572;2023-08-20T06:18:07;100679.09;;;23.01;100.00
7441;BME280;29616;51.950;8.572;2023-08-20T06:20:37;100675.41;;;23.14;100.00
7441;BME280;29616;51.950;8.572;2023-08-20T06:23:06;100686.69;;;23.38;100.00
7441;BME280;29616;51.950;8.572;2023-08-20T06:25:34;100697.94;;;23.63;100.00
7441;BME280;29616;51.950;8.572;2023-08-20T06:28:04;100674.94;;;23.68;100.00
7441;BME280;29616;51.950;8.572;2023-08-20T06:30:32;100678.69;;;24.18;100.00
7441;BME280;29616;51.950;8.572;2023-08-20T06:33:01;100676.78;;;24.61;100.00
7441;BME280;29616;51.950;8.572;2023-08-20T06:35:29;100687.19;;;24.72;100.00
7441;BME280;29616;51.950;8.572;2023-08-20T06:37:59;100694.88;;;24.02;100.00
7441;BME280;29616;51.950;8.572;2023-08-20T06:40:28;100690.63;;;24.25;100.00
7441;BME280;29616;51.950;8.572;2023-08-20T06:42:57;100692.84;;;24.65;100.00
7441;BME280;29616;51.950;8.572;2023-08-20T06:45:25;100714.13;;;24.66;100.00
7441;BME280;29616;51.950;8.572;2023-08-20T06:47:54;100695.44;;;24.67;100.00
7441;BME280;29616;51.950;8.572;2023-08-20T06:50:22;100703.50;;;25.66;100.00
7441;BME280;29616;51.950;8.572;2023-08-20T06:52:52;100688.81;;;25.22;100.00
7441;BME280;29616;51.950;8.572;2023-08-20T06:55:22;100698.91;;;25.05;100.00
7441;BME280;29616;51.950;8.572;2023-08-20T06:57:50;100688.44;;;24.76;100.00
7441;BME280;29616;51.950;8.572;2023-08-20T07:00:19;100683.41;;;26.28;100.00
7441;BME280;29616;51.950;8.572;2023-08-20T07:02:48;100665.88;;;26.21;100.00
7441;BME280;29616;51.950;8.572;2023-08-20T07:05:17;100681.66;;;27.20;100.00
7441;BME280;29616;51.950;8.572;2023-08-20T07:07:46;100698.91;;;27.63;100.00
7441;BME280;29616;51.950;8.572;2023-08-20T07:10:14;100700.00;;;27.11;100.00
7441;BME280;29616;51.950;8.572;2023-08-20T07:12:44;100671.94;;;27.11;100.00
7441;BME280;29616;51.950;8.572;2023-08-20T07:15:13;100691.63;;;27.39;100.00
7441;BME280;29616;51.950;8.572;2023-08-20T07:17:42;100695.59;;;27.15;100.00
7441;BME280;29616;51.950;8.572;2023-08-20T07:20:12;100675.94;;;27.27;100.00
7441;BME280;29616;51.950;8.572;2023-08-20T07:22:41;100690.59;;;26.36;100.00
7441;BME280;29616;51.950;8.572;2023-08-20T07:25:10;100688.75;;;26.18;100.00
7441;BME280;29616;51.950;8.572;2023-08-20T07:27:38;100700.44;;;26.15;100.00
7441;BME280;29616;51.950;8.572;2023-08-20T07:30:12;100688.81;;;27.39;100.00
7441;BME280;29616;51.950;8.572;2023-08-20T07:32:40;100693.44;;;26.71;100.00
7441;BME280;29616;51.950;8.572;2023-08-20T07:35:09;100699.53;;;26.91;100.00
7441;BME280;29616;51.950;8.572;2023-08-20T07:37:38;100698.81;;;27.58;100.00
7441;BME280;29616;51.950;8.572;2023-08-20T07:40:08;100699.69;;;27.47;100.00
7441;BME280;29616;51.950;8.572;2023-08-20T07:42:43;100677.59;;;28.24;100.00
7441;BME280;29616;51.950;8.572;2023-08-20T07:45:13;100698.25;;;29.01;100.00
7441;BME280;29616;51.950;8.572;2023-08-20T07:47:41;100700.78;;;28.31;100.00
7441;BME280;29616;51.950;8.572;2023-08-20T07:50:10;100696.69;;;28.39;100.00
7441;BME280;29616;51.950;8.572;2023-08-20T07:52:40;100657.22;;;28.83;100.00
7441;BME280;29616;51.950;8.572;2023-08-20T07:55:09;100666.47;;;28.62;100.00
7441;BME280;29616;51.950;8.572;2023-08-20T07:57:37;100698.81;;;29.20;100.00
7441;BME280;29616;51.950;8.572;2023-08-20T08:00:07;100694.69;;;29.06;100.00
7441;BME280;29616;51.950;8.572;2023-08-20T08:02:41;100704.47;;;29.41;100.00
7441;BME280;29616;51.950;8.572;2023-08-20T08:05:10;100704.47;;;29.63;100.00
7441;BME280;29616;51.950;8.572;2023-08-20T08:07:40;100703.19;;;29.76;100.00
7441;BME280;29616;51.950;8.572;2023-08-20T08:10:09;100685.38;;;29.70;100.00
7441;BME280;29616;51.950;8.572;2023-08-20T08:12:37;100676.13;;;29.70;100.00
7441;BME280;29616;51.950;8.572;2023-08-20T08:15:06;100696.88;;;29.64;100.00
7441;BME280;29616;51.950;8.572;2023-08-20T08:17:35;100700.03;;;29.67;100.00
7441;BME280;29616;51.950;8.572;2023-08-20T08:20:07;100692.22;;;29.53;100.00
7441;BME280;29616;51.950;8.572;2023-08-20T08:22:35;100677.47;;;29.40;100.00
7441;BME280;29616;51.950;8.572;2023-08-20T08:25:05;100695.50;;;29.44;100.00
7441;BME280;29616;51.950;8.572;2023-08-20T08:27:33;100689.75;;;29.56;100.00
7441;BME280;29616;51.950;8.572;2023-08-20T08:30:10;100694.00;;;29.80;100.00
7441;BME280;29616;51.950;8.572;2023-08-20T08:32:39;100702.38;;;29.75;100.00
7441;BME280;29616;51.950;8.572;2023-08-20T08:35:09;100696.06;;;29.90;100.00
7441;BME280;29616;51.950;8.572;2023-08-20T08:37:39;100699.84;;;30.00;100.00
7441;BME280;29616;51.950;8.572;2023-08-20T08:40:09;100684.00;;;29.46;100.00
7441;BME280;29616;51.950;8.572;2023-08-20T08:42:37;100705.41;;;29.47;100.00
7441;BME280;29616;51.950;8.572;2023-08-20T08:45:08;100681.47;;;29.93;100.00
7441;BME280;29616;51.950;8.572;2023-08-20T08:47:39;100698.88;;;30.43;100.00
7441;BME280;29616;51.950;8.572;2023-08-20T08:50:10;100701.81;;;30.58;100.00
7441;BME280;29616;51.950;8.572;2023-08-20T08:52:40;100699.16;;;30.15;100.00
7441;BME280;29616;51.950;8.572;2023-08-20T08:55:09;100702.69;;;30.59;100.00
7441;BME280;29616;51.950;8.572;2023-08-20T08:57:38;100715.47;;;30.40;100.00
7441;BME280;29616;51.950;8.572;2023-08-20T09:00:08;100706.84;;;30.88;100.00
7441;BME280;29616;51.950;8.572;2023-08-20T09:02:37;100701.38;;;31.08;100.00
7441;BME280;29616;51.950;8.572;2023-08-20T09:05:06;100707.31;;;31.12;100.00
7441;BME280;29616;51.950;8.572;2023-08-20T09:07:42;100704.66;;;31.42;100.00
7441;BME280;29616;51.950;8.572;2023-08-20T09:10:12;100695.69;;;31.03;100.00
7441;BME280;29616;51.950;8.572;2023-08-20T09:12:40;100701.78;;;31.32;100.00
7441;BME280;29616;51.950;8.572;2023-08-20T09:15:11;100675.63;;;31.00;100.00
7441;BME280;29616;51.950;8.572;2023-08-20T09:17:41;100679.97;;;31.23;100.00
7441;BME280;29616;51.950;8.572;2023-08-20T09:20:10;100691.63;;;32.03;100.00
7441;BME280;29616;51.950;8.572;2023-08-20T09:22:48;100689.81;;;31.72;100.00
7441;BME280;29616;51.950;8.572;2023-08-20T09:25:17;100702.81;;;31.78;100.00
7441;BME280;29616;51.950;8.572;2023-08-20T09:27:46;100702.53;;;31.17;100.00
7441;BME280;29616;51.950;8.572;2023-08-20T09:30:18;100692.31;;;30.70;100.00
7441;BME280;29616;51.950;8.572;2023-08-20T09:33:03;100700.09;;;31.36;100.00
7441;BME280;29616;51.950;8.572;2023-08-20T09:35:32;100690.66;;;31.72;100.00
7441;BME280;29616;51.950;8.572;2023-08-20T09:38:04;100686.28;;;32.22;100.00
7441;BME280;29616;51.950;8.572;2023-08-20T09:40:32;100687.97;;;32.38;100.00
7441;BME280;29616;51.950;8.572;2023-08-20T09:43:01;100695.63;;;32.53;100.00
7441;BME280;29616;51.950;8.572;2023-08-20T09:45:30;100692.19;;;32.10;100.00
7441;BME280;29616;51.950;8.572;2023-08-20T09:47:59;100697.31;;;32.33;100.00
7441;BME280;29616;51.950;8.572;2023-08-20T09:50:32;100662.66;;;31.04;100.00
7441;BME280;29616;51.950;8.572;2023-08-20T09:53:11;100681.03;;;31.11;100.00
7441;BME280;29616;51.950;8.572;2023-08-20T09:55:41;100700.81;;;31.68;100.00
7441;BME280;29616;51.950;8.572;2023-08-20T09:58:11;100686.69;;;31.63;100.00
7441;BME280;29616;51.950;8.572;2023-08-20T10:00:40;100701.16;;;31.92;100.00
7441;BME280;29616;51.950;8.572;2023-08-20T10:03:08;100703.00;;;32.69;100.00
7441;BME280;29616;51.950;8.572;2023-08-20T10:05:38;100710.91;;;32.42;100.00
7441;BME280;29616;51.950;8.572;2023-08-20T10:08:08;100711.72;;;32.42;100.00
7441;BME280;29616;51.950;8.572;2023-08-20T10:10:37;100713.19;;;32.60;100.00
7441;BME280;29616;51.950;8.572;2023-08-20T10:13:06;100704.38;;;32.91;100.00
7441;BME280;29616;51.950;8.572;2023-08-20T10:15:35;100704.28;;;33.42;100.00
7441;BME280;29616;51.950;8.572;2023-08-20T10:18:10;100704.50;;;33.55;100.00
7441;BME280;29616;51.950;8.572;2023-08-20T10:20:39;100692.13;;;33.31;97.37
7441;BME280;29616;51.950;8.572;2023-08-20T10:23:12;100681.50;;;32.58;92.84
7441;BME280;29616;51.950;8.572;2023-08-20T10:25:42;100706.06;;;33.87;82.89
7441;BME280;29616;51.950;8.572;2023-08-20T10:28:14;100697.09;;;33.70;87.50
7441;BME280;29616;51.950;8.572;2023-08-20T10:31:07;100676.97;;;32.62;95.31
7441;BME280;29616;51.950;8.572;2023-08-20T10:33:47;100700.06;;;33.24;92.05
7441;BME280;29616;51.950;8.572;2023-08-20T10:36:18;100711.03;;;33.46;92.45
7441;BME280;29616;51.950;8.572;2023-08-20T10:38:51;100709.38;;;34.09;81.82
7441;BME280;29616;51.950;8.572;2023-08-20T10:41:25;100692.38;;;33.99;84.77
7441;BME280;29616;51.950;8.572;2023-08-20T10:43:58;100716.56;;;34.35;85.66
7441;BME280;29616;51.950;8.572;2023-08-20T10:46:28;100710.97;;;34.64;77.56
7441;BME280;29616;51.950;8.572;2023-08-20T10:49:00;100691.13;;;34.20;87.86
7441;BME280;29616;51.950;8.572;2023-08-20T10:51:33;100719.59;;;34.49;84.90
7441;BME280;29616;51.950;8.572;2023-08-20T10:54:08;100710.38;;;34.67;81.12
7441;BME280;29616;51.950;8.572;2023-08-20T10:56:40;100690.44;;;34.38;79.81
7441;BME280;29616;51.950;8.572;2023-08-20T10:59:13;100698.03;;;35.10;74.65
7441;BME280;29616;51.950;8.572;2023-08-20T11:01:44;100692.69;;;35.75;66.57
7441;BME280;29616;51.950;8.572;2023-08-20T11:04:13;100688.91;;;35.37;67.66
7441;BME280;29616;51.950;8.572;2023-08-20T11:06:43;100693.81;;;35.32;75.27
7441;BME280;29616;51.950;8.572;2023-08-20T11:09:13;100693.13;;;35.16;71.96
7441;BME280;29616;51.950;8.572;2023-08-20T11:11:43;100694.56;;;34.85;74.73
7441;BME280;29616;51.950;8.572;2023-08-20T11:14:13;100697.31;;;35.47;74.28
7441;BME280;29616;51.950;8.572;2023-08-20T11:16:43;100695.81;;;35.31;74.05
7441;BME280;29616;51.950;8.572;2023-08-20T11:19:14;100697.94;;;35.68;66.26
7441;BME280;29616;51.950;8.572;2023-08-20T11:21:43;100648.91;;;35.10;67.68
7441;BME280;29616;51.950;8.572;2023-08-20T11:24:14;100705.16;;;35.03;69.87
7441;BME280;29616;51.950;8.572;2023-08-20T11:26:44;100708.06;;;33.86;77.14
7441;BME280;29616;51.950;8.572;2023-08-20T11:29:14;100712.63;;;33.82;80.40
7441;BME280;29616;51.950;8.572;2023-08-20T11:31:47;100708.03;;;34.74;80.98
7441;BME280;29616;51.950;8.572;2023-08-20T11:34:18;100699.69;;;34.15;86.04
7441;BME280;29616;51.950;8.572;2023-08-20T11:36:47;100715.63;;;33.37;88.64
7441;BME280;29616;51.950;8.572;2023-08-20T11:39:17;100713.13;;;34.38;83.09
7441;BME280;29616;51.950;8.572;2023-08-20T11:41:46;100710.19;;;33.45;87.54
7441;BME280;29616;51.950;8.572;2023-08-20T11:44:20;100698.34;;;33.33;83.02
7441;BME280;29616;51.950;8.572;2023-08-20T11:46:49;100711.16;;;32.95;91.43
7441;BME280;29616;51.950;8.572;2023-08-20T11:49:26;100669.53;;;31.90;100.00
7441;BME280;29616;51.950;8.572;2023-08-20T11:51:55;100707.91;;;31.81;100.00
7441;BME280;29616;51.950;8.572;2023-08-20T11:54:26;100687.47;;;31.54;100.00
7441;BME280;29616;51.950;8.572;2023-08-20T11:57:02;100681.25;;;31.47;100.00
7441;BME280;29616;51.950;8.572;2023-08-20T11:59:32;100686.84;;;31.42;100.00
7441;BME280;29616;51.950;8.572;2023-08-20T12:02:02;100687.19;;;30.98;100.00
7441;BME280;29616;51.950;8.572;2023-08-20T12:04:31;100671.16;;;31.71;100.00
7441;BME280;29616;51.950;8.572;2023-08-20T12:07:09;100672.75;;;32.54;100.00
7441;BME280;29616;51.950;8.572;2023-08-20T12:09:39;100661.31;;;33.15;99.95
7441;BME280;29616;51.950;8.572;2023-08-20T12:12:09;100696.59;;;33.47;97.20
7441;BME280;29616;51.950;8.572;2023-08-20T12:14:38;100694.78;;;33.82;94.62
7441;BME280;29616;51.950;8.572;2023-08-20T12:17:09;100660.50;;;34.22;91.21
7441;BME280;29616;51.950;8.572;2023-08-20T12:19:37;100680.81;;;34.68;86.60
7441;BME280;29616;51.950;8.572;2023-08-20T12:22:06;100692.28;;;34.19;82.07
7441;BME280;29616;51.950;8.572;2023-08-20T12:24:35;100688.75;;;33.29;88.42
7441;BME280;29616;51.950;8.572;2023-08-20T12:27:08;100665.06;;;32.75;94.16
7441;BME280;29616;51.950;8.572;2023-08-20T12:29:37;100682.91;;;32.60;100.00
7441;BME280;29616;51.950;8.572;2023-08-20T12:32:05;100681.75;;;32.76;98.87
7441;BME280;29616;51.950;8.572;2023-08-20T12:34:35;100675.19;;;33.21;98.42
7441;BME280;29616;51.950;8.572;2023-08-20T12:37:05;100690.56;;;34.18;88.57
7441;BME280;29616;51.950;8.572;2023-08-20T12:39:35;100669.38;;;34.05;90.01
7441;BME280;29616;51.950;8.572;2023-08-20T12:42:04;100677.91;;;33.46;92.78
7441;BME280;29616;51.950;8.572;2023-08-20T12:44:34;100660.81;;;33.72;87.04
7441;BME280;29616;51.950;8.572;2023-08-20T12:47:03;100679.72;;;33.12;90.44
7441;BME280;29616;51.950;8.572;2023-08-20T12:49:31;100670.72;;;32.75;94.84
7441;BME280;29616;51.950;8.572;2023-08-20T12:52:00;100619.81;;;32.45;100.00
7441;BME280;29616;51.950;8.572;2023-08-20T12:54:29;100680.03;;;33.75;100.00
7441;BME280;29616;51.950;8.572;2023-08-20T12:56:58;100675.81;;;32.58;100.00
7441;BME280;29616;51.950;8.572;2023-08-20T12:59:26;100677.16;;;31.95;100.00
7441;BME280;29616;51.950;8.572;2023-08-20T13:01:56;100683.03;;;31.78;100.00
7441;BME280;29616;51.950;8.572;2023-08-20T13:04:26;100669.31;;;31.30;100.00
7441;BME280;29616;51.950;8.572;2023-08-20T13:06:55;100674.13;;;31.34;100.00
7441;BME280;29616;51.950;8.572;2023-08-20T13:09:25;100678.75;;;31.55;100.00